sensor_id;sensor_type;location;lat;lon;timestamp;temperature;humidity
2010;DHT22;1008;47.404;8.502;2023-04-24T00:00:06;11.80;99.90
2010;DHT22;1008;47.404;8.502;2023-04-24T00:02:36;11.60;99.90
2010;DHT22;1008;47.404;8.502;2023-04-24T00:05:04;11.60;99.90
2010;DHT22;1008;47.404;8.502;2023-04-24T00:07:31;11.60;99.90
2010;DHT22;1008;47.404;8.502;2023-04-24T00:09:58;11.40;99.90
2010;DHT22;1008;47.404;8.502;2023-04-24T00:12:25;11.20;99.90
2010;DHT22;1008;47.404;8.502;2023-04-24T00:14:53;11.20;99.90
2010;DHT22;1008;47.404;8.502;2023-04-24T00:17:19;11.10;99.90
2010;DHT22;1008;47.404;8.502;2023-04-24T00:19:48;11.10;99.90
2010;DHT22;1008;47.404;8.502;2023-04-24T00:22:16;11.10;99.90
2010;DHT22;1008;47.404;8.502;2023-04-24T00:24:43;11.10;99.90
2010;DHT22;1008;47.404;8.502;2023-04-24T00:27:10;11.00;99.90
2010;DHT22;1008;47.404;8.502;2023-04-24T00:29:37;10.90;99.90
2010;DHT22;1008;47.404;8.502;2023-04-24T00:32:03;10.90;99.90
2010;DHT22;1008;47.404;8.502;2023-04-24T00:34:30;10.90;99.90
2010;DHT22;1008;47.404;8.502;2023-04-24T00:36:59;11.00;99.90
2010;DHT22;1008;47.404;8.502;2023-04-24T00:39:26;11.20;99.90
2010;DHT22;1008;47.404;8.502;2023-04-24T00:41:53;11.20;99.90
2010;DHT22;1008;47.404;8.502;2023-04-24T00:44:20;11.20;99.90
2010;DHT22;1008;47.404;8.502;2023-04-24T00:46:47;11.20;99.90
2010;DHT22;1008;47.404;8.502;2023-04-24T00:49:18;11.20;99.90
2010;DHT22;1008;47.404;8.502;2023-04-24T00:51:44;11.20;99.90
2010;DHT22;1008;47.404;8.502;2023-04-24T00:54:13;11.20;99.90
2010;DHT22;1008;47.404;8.502;2023-04-24T00:56:40;11.20;99.90
2010;DHT22;1008;47.404;8.502;2023-04-24T00:59:08;11.30;99.90
2010;DHT22;1008;47.404;8.502;2023-04-24T01:01:35;11.30;99.90
2010;DHT22;1008;47.404;8.502;2023-04-24T01:04:02;11.20;99.90
2010;DHT22;1008;47.404;8.502;2023-04-24T01:06:29;11.00;99.90
2010;DHT22;1008;47.404;8.502;2023-04-24T01:08:57;11.10;99.90
2010;DHT22;1008;47.404;8.502;2023-04-24T01:11:27;11.10;99.90
2010;DHT22;1008;47.404;8.502;2023-04-24T01:13:54;11.20;99.90
2010;DHT22;1008;47.404;8.502;2023-04-24T01:16:20;11.30;99.90
2010;DHT22;1008;47.404;8.502;2023-04-24T01:18:47;11.30;99.90
2010;DHT22;1008;47.404;8.502;2023-04-24T01:21:15;11.30;99.90
2010;DHT22;1008;47.404;8.502;2023-04-24T01:23:43;11.40;99.90
2010;DHT22;1008;47.404;8.502;2023-04-24T01:26:11;11.40;99.90
2010;DHT22;1008;47.404;8.502;2023-04-24T01:28:37;11.30;99.90
2010;DHT22;1008;47.404;8.502;2023-04-24T01:31:04;11.30;99.90
2010;DHT22;1008;47.404;8.502;2023-04-24T01:33:31;11.30;99.90
2010;DHT22;1008;47.404;8.502;2023-04-24T01:35:58;11.30;99.90
2010;DHT22;1008;47.404;8.502;2023-04-24T01:38:25;11.20;99.90
2010;DHT22;1008;47.404;8.502;2023-04-24T01:40:53;11.00;99.90
2010;DHT22;1008;47.404;8.502;2023-04-24T01:43:20;11.00;99.90
2010;DHT22;1008;47.404;8.502;2023-04-24T01:45:47;10.90;99.90
2010;DHT22;1008;47.404;8.502;2023-04-24T01:48:14;10.90;99.90
2010;DHT22;1008;47.404;8.502;2023-04-24T01:50:41;10.90;99.90
2010;DHT22;1008;47.404;8.502;2023-04-24T01:53:08;10.90;99.90
2010;DHT22;1008;47.404;8.502;2023-04-24T01:55:35;10.80;99.90
2010;DHT22;1008;47.404;8.502;2023-04-24T01:58:03;10.70;99.90
2010;DHT22;1008;47.404;8.502;2023-04-24T02:00:30;10.70;99.90
2010;DHT22;1008;47.404;8.502;2023-04-24T02:02:56;10.50;99.90
2010;DHT22;1008;47.404;8.502;2023-04-24T02:05:23;10.70;99.90
2010;DHT22;1008;47.404;8.502;2023-04-24T02:07:50;10.60;99.90
2010;DHT22;1008;47.404;8.502;2023-04-24T02:10:17;10.70;99.90
2010;DHT22;1008;47.404;8.502;2023-04-24T02:12:43;10.80;99.90
2010;DHT22;1008;47.404;8.502;2023-04-24T02:15:12;10.80;99.90
2010;DHT22;1008;47.404;8.502;2023-04-24T02:17:38;10.70;99.90
2010;DHT22;1008;47.404;8.502;2023-04-24T02:20:06;10.50;99.90
2010;DHT22;1008;47.404;8.502;2023-04-24T02:22:33;10.50;99.90
2010;DHT22;1008;47.404;8.502;2023-04-24T02:25:00;10.50;99.90
2010;DHT22;1008;47.404;8.502;2023-04-24T02:27:27;10.40;99.90
2010;DHT22;1008;47.404;8.502;2023-04-24T02:29:54;10.40;99.90
2010;DHT22;1008;47.404;8.502;2023-04-24T02:32:22;10.60;99.90
2010;DHT22;1008;47.404;8.502;2023-04-24T02:34:49;10.70;99.90
2010;DHT22;1008;47.404;8.502;2023-04-24T02:37:16;10.70;99.90
2010;DHT22;1008;47.404;8.502;2023-04-24T02:39:43;10.60;99.90
2010;DHT22;1008;47.404;8.502;2023-04-24T02:42:09;10.60;99.90
2010;DHT22;1008;47.404;8.502;2023-04-24T02:44:36;10.50;99.90
2010;DHT22;1008;47.404;8.502;2023-04-24T02:47:04;10.40;99.90
2010;DHT22;1008;47.404;8.502;2023-04-24T02:49:32;10.50;99.90
2010;DHT22;1008;47.404;8.502;2023-04-24T02:51:58;10.50;99.90
2010;DHT22;1008;47.404;8.502;2023-04-24T02:54:25;10.50;99.90
2010;DHT22;1008;47.404;8.502;2023-04-24T02:56:52;10.70;99.90
2010;DHT22;1008;47.404;8.502;2023-04-24T02:59:19;10.50;99.90
2010;DHT22;1008;47.404;8.502;2023-04-24T03:01:46;10.50;99.90
2010;DHT22;1008;47.404;8.502;2023-04-24T03:04:13;10.50;99.90
2010;DHT22;1008;47.404;8.502;2023-04-24T03:06:42;10.70;99.90
2010;DHT22;1008;47.404;8.502;2023-04-24T03:09:09;10.70;99.90
2010;DHT22;1008;47.404;8.502;2023-04-24T03:11:35;10.60;99.90
2010;DHT22;1008;47.404;8.502;2023-04-24T03:14:02;10.50;99.90
2010;DHT22;1008;47.404;8.502;2023-04-24T03:16:29;10.50;99.90
2010;DHT22;1008;47.404;8.502;2023-04-24T03:18:56;10.50;99.90
2010;DHT22;1008;47.404;8.502;2023-04-24T03:21:22;10.60;99.90
2010;DHT22;1008;47.404;8.502;2023-04-24T03:23:51;10.60;99.90
2010;DHT22;1008;47.404;8.502;2023-04-24T03:26:17;10.50;99.90
2010;DHT22;1008;47.404;8.502;2023-04-24T03:28:44;10.50;99.90
2010;DHT22;1008;47.404;8.502;2023-04-24T03:31:11;10.50;99.90
2010;DHT22;1008;47.404;8.502;2023-04-24T03:33:37;10.60;99.90
2010;DHT22;1008;47.404;8.502;2023-04-24T03:36:04;10.60;99.90
2010;DHT22;1008;47.404;8.502;2023-04-24T03:38:31;10.70;99.90
2010;DHT22;1008;47.404;8.502;2023-04-24T03:40:59;10.60;99.90
2010;DHT22;1008;47.404;8.502;2023-04-24T03:43:26;10.50;99.90
2010;DHT22;1008;47.404;8.502;2023-04-24T03:45:53;10.50;99.90
2010;DHT22;1008;47.404;8.502;2023-04-24T03:48:20;10.50;99.90
2010;DHT22;1008;47.404;8.502;2023-04-24T03:50:47;10.60;99.90
2010;DHT22;1008;47.404;8.502;2023-04-24T03:53:13;10.70;99.90
2010;DHT22;1008;47.404;8.502;2023-04-24T03:55:40;10.50;99.90
2010;DHT22;1008;47.404;8.502;2023-04-24T03:58:08;10.50;99.90
2010;DHT22;1008;47.404;8.502;2023-04-24T04:00:36;10.60;99.90
2010;DHT22;1008;47.404;8.502;2023-04-24T04:03:06;10.50;99.90
2010;DHT22;1008;47.404;8.502;2023-04-24T04:05:33;10.60;99.90
2010;DHT22;1008;47.404;8.502;2023-04-24T04:07:59;10.60;99.90
2010;DHT22;1008;47.404;8.502;2023-04-24T04:10:26;10.40;99.90
2010;DHT22;1008;47.404;8.502;2023-04-24T04:12:53;10.40;99.90
2010;DHT22;1008;47.404;8.502;2023-04-24T04:15:21;10.50;99.90
2010;DHT22;1008;47.404;8.502;2023-04-24T04:17:48;10.40;99.90
2010;DHT22;1008;47.404;8.502;2023-04-24T04:20:14;10.40;99.90
2010;DHT22;1008;47.404;8.502;2023-04-24T04:22:41;10.40;99.90
2010;DHT22;1008;47.404;8.502;2023-04-24T04:25:08;10.30;99.90
2010;DHT22;1008;47.404;8.502;2023-04-24T04:27:35;10.10;99.90
2010;DHT22;1008;47.404;8.502;2023-04-24T04:30:03;10.10;99.90
2010;DHT22;1008;47.404;8.502;2023-04-24T04:32:32;10.10;99.90
2010;DHT22;1008;47.404;8.502;2023-04-24T04:35:00;10.10;99.90
2010;DHT22;1008;47.404;8.502;2023-04-24T04:37:28;10.10;99.90
2010;DHT22;1008;47.404;8.502;2023-04-24T04:39:55;10.10;99.90
2010;DHT22;1008;47.404;8.502;2023-04-24T04:42:23;10.10;99.90
2010;DHT22;1008;47.404;8.502;2023-04-24T04:44:50;10.10;99.90
2010;DHT22;1008;47.404;8.502;2023-04-24T04:47:17;10.10;99.90
2010;DHT22;1008;47.404;8.502;2023-04-24T04:49:45;10.00;99.90
2010;DHT22;1008;47.404;8.502;2023-04-24T04:52:12;10.00;99.90
2010;DHT22;1008;47.404;8.502;2023-04-24T04:54:39;10.10;99.90
2010;DHT22;1008;47.404;8.502;2023-04-24T04:57:06;10.00;99.90
2010;DHT22;1008;47.404;8.502;2023-04-24T04:59:33;9.90;99.90
2010;DHT22;1008;47.404;8.502;2023-04-24T05:02:00;9.70;99.90
2010;DHT22;1008;47.404;8.502;2023-04-24T05:04:27;9.90;99.90
2010;DHT22;1008;47.404;8.502;2023-04-24T05:06:55;9.60;99.90
2010;DHT22;1008;47.404;8.502;2023-04-24T05:09:21;9.60;99.90
2010;DHT22;1008;47.404;8.502;2023-04-24T05:11:48;9.50;99.90
2010;DHT22;1008;47.404;8.502;2023-04-24T05:14:15;9.50;99.90
2010;DHT22;1008;47.404;8.502;2023-04-24T05:16:43;9.40;99.90
2010;DHT22;1008;47.404;8.502;2023-04-24T05:19:10;9.60;99.90
2010;DHT22;1008;47.404;8.502;2023-04-24T05:21:37;9.80;99.90
2010;DHT22;1008;47.404;8.502;2023-04-24T05:24:06;9.50;99.90
2010;DHT22;1008;47.404;8.502;2023-04-24T05:26:33;9.50;99.90
2010;DHT22;1008;47.404;8.502;2023-04-24T05:29:01;9.50;99.90
2010;DHT22;1008;47.404;8.502;2023-04-24T05:31:27;9.60;99.90
2010;DHT22;1008;47.404;8.502;2023-04-24T05:33:54;9.60;99.90
2010;DHT22;1008;47.404;8.502;2023-04-24T05:36:21;10.00;99.90
2010;DHT22;1008;47.404;8.502;2023-04-24T05:38:48;9.90;99.90
2010;DHT22;1008;47.404;8.502;2023-04-24T05:41:16;9.90;99.90
2010;DHT22;1008;47.404;8.502;2023-04-24T05:43:43;9.90;99.90
2010;DHT22;1008;47.404;8.502;2023-04-24T05:46:11;9.80;99.90
2010;DHT22;1008;47.404;8.502;2023-04-24T05:48:37;9.90;99.90
2010;DHT22;1008;47.404;8.502;2023-04-24T05:51:04;9.80;99.90
2010;DHT22;1008;47.404;8.502;2023-04-24T05:53:31;9.70;99.90
2010;DHT22;1008;47.404;8.502;2023-04-24T05:55:58;9.70;99.90
2010;DHT22;1008;47.404;8.502;2023-04-24T05:58:26;9.80;99.90
2010;DHT22;1008;47.404;8.502;2023-04-24T06:00:53;9.80;99.90
2010;DHT22;1008;47.404;8.502;2023-04-24T06:03:20;9.80;99.90
2010;DHT22;1008;47.404;8.502;2023-04-24T06:05:47;10.00;99.90
2010;DHT22;1008;47.404;8.502;2023-04-24T06:08:14;10.00;99.90
2010;DHT22;1008;47.404;8.502;2023-04-24T06:10:40;10.10;99.90
2010;DHT22;1008;47.404;8.502;2023-04-24T06:13:07;9.90;99.90
2010;DHT22;1008;47.404;8.502;2023-04-24T06:15:35;10.00;99.90
2010;DHT22;1008;47.404;8.502;2023-04-24T06:18:02;10.20;99.90
2010;DHT22;1008;47.404;8.502;2023-04-24T06:20:29;10.00;99.90
2010;DHT22;1008;47.404;8.502;2023-04-24T06:22:56;9.90;99.90
2010;DHT22;1008;47.404;8.502;2023-04-24T06:25:24;10.00;99.90
2010;DHT22;1008;47.404;8.502;2023-04-24T06:27:51;9.90;99.90
2010;DHT22;1008;47.404;8.502;2023-04-24T06:30:18;10.00;99.90
2010;DHT22;1008;47.404;8.502;2023-04-24T06:32:46;9.90;99.90
2010;DHT22;1008;47.404;8.502;2023-04-24T06:35:13;10.00;99.90
2010;DHT22;1008;47.404;8.502;2023-04-24T06:37:40;10.10;99.90
2010;DHT22;1008;47.404;8.502;2023-04-24T06:40:08;10.00;99.90
2010;DHT22;1008;47.404;8.502;2023-04-24T06:42:35;10.10;99.90
2010;DHT22;1008;47.404;8.502;2023-04-24T06:45:02;10.30;99.90
2010;DHT22;1008;47.404;8.502;2023-04-24T06:47:29;10.50;99.90
2010;DHT22;1008;47.404;8.502;2023-04-24T06:49:58;10.60;99.90
2010;DHT22;1008;47.404;8.502;2023-04-24T06:52:24;11.00;99.90
2010;DHT22;1008;47.404;8.502;2023-04-24T06:54:51;10.80;99.90
2010;DHT22;1008;47.404;8.502;2023-04-24T06:57:18;10.60;99.90
2010;DHT22;1008;47.404;8.502;2023-04-24T06:59:52;10.70;99.90
2010;DHT22;1008;47.404;8.502;2023-04-24T07:02:20;10.60;99.90
2010;DHT22;1008;47.404;8.502;2023-04-24T07:04:47;10.50;99.90
2010;DHT22;1008;47.404;8.502;2023-04-24T07:07:15;10.70;99.90
2010;DHT22;1008;47.404;8.502;2023-04-24T07:09:42;10.70;99.90
2010;DHT22;1008;47.404;8.502;2023-04-24T07:12:10;10.60;99.90
2010;DHT22;1008;47.404;8.502;2023-04-24T07:14:38;10.60;99.90
2010;DHT22;1008;47.404;8.502;2023-04-24T07:17:05;10.80;99.90
2010;DHT22;1008;47.404;8.502;2023-04-24T07:19:33;10.90;99.90
2010;DHT22;1008;47.404;8.502;2023-04-24T07:21:59;10.90;99.90
2010;DHT22;1008;47.404;8.502;2023-04-24T07:24:28;10.80;99.90
2010;DHT22;1008;47.404;8.502;2023-04-24T07:26:54;10.80;99.90
2010;DHT22;1008;47.404;8.502;2023-04-24T07:29:22;10.70;99.90
2010;DHT22;1008;47.404;8.502;2023-04-24T07:31:49;10.80;99.90
2010;DHT22;1008;47.404;8.502;2023-04-24T07:34:16;10.90;99.90
2010;DHT22;1008;47.404;8.502;2023-04-24T07:36:42;11.00;99.90
2010;DHT22;1008;47.404;8.502;2023-04-24T07:39:09;11.30;99.90
2010;DHT22;1008;47.404;8.502;2023-04-24T07:41:38;11.30;99.90
2010;DHT22;1008;47.404;8.502;2023-04-24T07:44:05;11.40;99.90
2010;DHT22;1008;47.404;8.502;2023-04-24T07:46:32;11.40;99.90
2010;DHT22;1008;47.404;8.502;2023-04-24T07:48:59;11.40;99.90
2010;DHT22;1008;47.404;8.502;2023-04-24T07:51:26;11.40;99.90
2010;DHT22;1008;47.404;8.502;2023-04-24T07:53:53;11.40;99.90
2010;DHT22;1008;47.404;8.502;2023-04-24T07:56:21;11.50;99.90
2010;DHT22;1008;47.404;8.502;2023-04-24T07:58:49;11.40;99.90
2010;DHT22;1008;47.404;8.502;2023-04-24T08:01:16;10.60;99.90
2010;DHT22;1008;47.404;8.502;2023-04-24T08:03:42;10.00;99.90
2010;DHT22;1008;47.404;8.502;2023-04-24T08:06:09;9.80;99.90
2010;DHT22;1008;47.404;8.502;2023-04-24T08:08:36;9.10;99.90
2010;DHT22;1008;47.404;8.502;2023-04-24T08:11:03;8.80;99.90
2010;DHT22;1008;47.404;8.502;2023-04-24T08:13:29;8.30;99.90
2010;DHT22;1008;47.404;8.502;2023-04-24T08:15:57;8.20;99.90
2010;DHT22;1008;47.404;8.502;2023-04-24T08:18:24;8.20;99.90
2010;DHT22;1008;47.404;8.502;2023-04-24T08:20:51;8.10;99.90
2010;DHT22;1008;47.404;8.502;2023-04-24T08:23:18;8.20;99.90
2010;DHT22;1008;47.404;8.502;2023-04-24T08:25:45;8.10;99.90
2010;DHT22;1008;47.404;8.502;2023-04-24T08:28:12;8.30;99.90
2010;DHT22;1008;47.404;8.502;2023-04-24T08:30:45;8.30;99.90
2010;DHT22;1008;47.404;8.502;2023-04-24T08:33:13;8.50;99.90
2010;DHT22;1008;47.404;8.502;2023-04-24T08:35:40;8.60;99.90
2010;DHT22;1008;47.404;8.502;2023-04-24T08:38:07;8.80;99.90
2010;DHT22;1008;47.404;8.502;2023-04-24T08:40:34;8.70;99.90
2010;DHT22;1008;47.404;8.502;2023-04-24T08:43:01;8.80;99.90
2010;DHT22;1008;47.404;8.502;2023-04-24T08:45:29;9.10;99.90
2010;DHT22;1008;47.404;8.502;2023-04-24T08:47:57;9.20;99.90
2010;DHT22;1008;47.404;8.502;2023-04-24T08:50:26;9.50;99.90
2010;DHT22;1008;47.404;8.502;2023-04-24T08:52:53;10.00;99.90
2010;DHT22;1008;47.404;8.502;2023-04-24T08:55:20;10.30;99.90
2010;DHT22;1008;47.404;8.502;2023-04-24T08:57:51;10.50;99.90
2010;DHT22;1008;47.404;8.502;2023-04-24T09:00:19;10.10;99.90
2010;DHT22;1008;47.404;8.502;2023-04-24T09:02:48;10.00;99.90
2010;DHT22;1008;47.404;8.502;2023-04-24T09:05:17;10.40;99.90
2010;DHT22;1008;47.404;8.502;2023-04-24T09:07:50;10.40;99.90
2010;DHT22;1008;47.404;8.502;2023-04-24T09:10:19;10.70;99.90
2010;DHT22;1008;47.404;8.502;2023-04-24T09:12:46;11.00;99.90
2010;DHT22;1008;47.404;8.502;2023-04-24T09:15:14;11.30;99.90
2010;DHT22;1008;47.404;8.502;2023-04-24T09:17:41;11.50;99.90
2010;DHT22;1008;47.404;8.502;2023-04-24T09:20:08;11.70;99.90
2010;DHT22;1008;47.404;8.502;2023-04-24T09:22:35;12.00;99.90
2010;DHT22;1008;47.404;8.502;2023-04-24T09:25:05;11.80;99.90
2010;DHT22;1008;47.404;8.502;2023-04-24T09:27:33;11.50;99.90
2010;DHT22;1008;47.404;8.502;2023-04-24T09:30:00;11.60;99.90
2010;DHT22;1008;47.404;8.502;2023-04-24T09:32:27;11.30;99.90
2010;DHT22;1008;47.404;8.502;2023-04-24T09:35:09;10.90;99.90
2010;DHT22;1008;47.404;8.502;2023-04-24T09:37:37;10.80;99.90
2010;DHT22;1008;47.404;8.502;2023-04-24T09:40:10;10.70;99.90
2010;DHT22;1008;47.404;8.502;2023-04-24T09:42:38;10.50;99.90
2010;DHT22;1008;47.404;8.502;2023-04-24T09:45:08;10.40;99.90
2010;DHT22;1008;47.404;8.502;2023-04-24T09:47:36;10.50;99.90
2010;DHT22;1008;47.404;8.502;2023-04-24T09:50:10;10.90;99.90
2010;DHT22;1008;47.404;8.502;2023-04-24T09:52:40;11.20;99.90
2010;DHT22;1008;47.404;8.502;2023-04-24T09:55:13;11.70;99.90
2010;DHT22;1008;47.404;8.502;2023-04-24T09:57:48;11.90;99.90
2010;DHT22;1008;47.404;8.502;2023-04-24T10:00:18;12.20;99.90
2010;DHT22;1008;47.404;8.502;2023-04-24T10:02:50;12.70;99.90
2010;DHT22;1008;47.404;8.502;2023-04-24T10:05:17;12.60;99.90
2010;DHT22;1008;47.404;8.502;2023-04-24T10:07:46;12.60;99.90
2010;DHT22;1008;47.404;8.502;2023-04-24T10:10:15;13.00;99.90
2010;DHT22;1008;47.404;8.502;2023-04-24T10:12:42;13.30;99.90
2010;DHT22;1008;47.404;8.502;2023-04-24T10:15:10;13.20;99.90
2010;DHT22;1008;47.404;8.502;2023-04-24T10:17:39;12.90;99.90
2010;DHT22;1008;47.404;8.502;2023-04-24T10:20:07;13.10;99.90
2010;DHT22;1008;47.404;8.502;2023-04-24T10:22:37;13.30;99.90
2010;DHT22;1008;47.404;8.502;2023-04-24T10:25:04;13.10;99.90
2010;DHT22;1008;47.404;8.502;2023-04-24T10:27:34;12.90;99.90
2010;DHT22;1008;47.404;8.502;2023-04-24T10:30:02;12.90;99.90
2010;DHT22;1008;47.404;8.502;2023-04-24T10:32:29;13.30;99.90
2010;DHT22;1008;47.404;8.502;2023-04-24T10:34:56;13.60;99.90
2010;DHT22;1008;47.404;8.502;2023-04-24T10:37:24;13.60;99.90
2010;DHT22;1008;47.404;8.502;2023-04-24T10:39:52;13.90;99.90
2010;DHT22;1008;47.404;8.502;2023-04-24T10:42:20;13.60;99.90
2010;DHT22;1008;47.404;8.502;2023-04-24T10:44:48;13.10;99.90
2010;DHT22;1008;47.404;8.502;2023-04-24T10:47:15;12.80;99.90
2010;DHT22;1008;47.404;8.502;2023-04-24T10:49:42;12.90;99.90
2010;DHT22;1008;47.404;8.502;2023-04-24T10:52:09;13.00;99.90
2010;DHT22;1008;47.404;8.502;2023-04-24T10:54:41;13.00;99.90
2010;DHT22;1008;47.404;8.502;2023-04-24T10:57:27;13.10;99.90
2010;DHT22;1008;47.404;8.502;2023-04-24T11:00:19;13.20;99.90
2010;DHT22;1008;47.404;8.502;2023-04-24T11:02:47;13.40;99.90
2010;DHT22;1008;47.404;8.502;2023-04-24T11:05:19;13.20;99.90
2010;DHT22;1008;47.404;8.502;2023-04-24T11:08:09;13.00;99.90
2010;DHT22;1008;47.404;8.502;2023-04-24T11:10:43;12.90;99.90
2010;DHT22;1008;47.404;8.502;2023-04-24T11:13:10;12.70;99.90
2010;DHT22;1008;47.404;8.502;2023-04-24T11:15:41;12.50;99.90
2010;DHT22;1008;47.404;8.502;2023-04-24T11:18:13;12.40;99.90
2010;DHT22;1008;47.404;8.502;2023-04-24T11:20:42;12.30;99.90
2010;DHT22;1008;47.404;8.502;2023-04-24T11:23:09;12.40;99.90
2010;DHT22;1008;47.404;8.502;2023-04-24T11:25:38;12.50;99.90
2010;DHT22;1008;47.404;8.502;2023-04-24T11:28:05;12.80;99.90
2010;DHT22;1008;47.404;8.502;2023-04-24T11:30:33;12.80;99.90
2010;DHT22;1008;47.404;8.502;2023-04-24T11:33:04;12.80;99.90
2010;DHT22;1008;47.404;8.502;2023-04-24T11:35:36;12.90;99.90
2010;DHT22;1008;47.404;8.502;2023-04-24T11:38:06;13.10;99.90
2010;DHT22;1008;47.404;8.502;2023-04-24T11:40:34;12.90;99.90
2010;DHT22;1008;47.404;8.502;2023-04-24T11:43:00;12.70;99.90
2010;DHT22;1008;47.404;8.502;2023-04-24T11:45:28;12.60;99.90
2010;DHT22;1008;47.404;8.502;2023-04-24T11:47:56;12.50;99.90
2010;DHT22;1008;47.404;8.502;2023-04-24T11:50:26;12.50;99.90
2010;DHT22;1008;47.404;8.502;2023-04-24T11:52:55;12.50;99.90
2010;DHT22;1008;47.404;8.502;2023-04-24T11:55:26;12.50;99.90
2010;DHT22;1008;47.404;8.502;2023-04-24T11:57:54;12.50;99.90
2010;DHT22;1008;47.404;8.502;2023-04-24T12:00:24;12.90;99.90
2010;DHT22;1008;47.404;8.502;2023-04-24T12:02:51;13.20;99.90
2010;DHT22;1008;47.404;8.502;2023-04-24T12:05:22;13.50;99.90
2010;DHT22;1008;47.404;8.502;2023-04-24T12:07:50;13.50;99.90
2010;DHT22;1008;47.404;8.502;2023-04-24T12:10:20;13.50;99.90
2010;DHT22;1008;47.404;8.502;2023-04-24T12:12:47;13.10;99.90
2010;DHT22;1008;47.404;8.502;2023-04-24T12:15:16;13.50;99.90
2010;DHT22;1008;47.404;8.502;2023-04-24T12:17:44;13.70;99.90
2010;DHT22;1008;47.404;8.502;2023-04-24T12:20:12;13.80;99.90
2010;DHT22;1008;47.404;8.502;2023-04-24T12:22:46;13.90;99.90
2010;DHT22;1008;47.404;8.502;2023-04-24T12:25:16;13.70;99.90
2010;DHT22;1008;47.404;8.502;2023-04-24T12:27:44;13.20;99.90
2010;DHT22;1008;47.404;8.502;2023-04-24T12:30:13;13.00;99.90
2010;DHT22;1008;47.404;8.502;2023-04-24T12:32:45;12.70;99.90
2010;DHT22;1008;47.404;8.502;2023-04-24T12:35:12;12.60;99.90
2010;DHT22;1008;47.404;8.502;2023-04-24T12:37:42;12.30;99.90
2010;DHT22;1008;47.404;8.502;2023-04-24T12:40:10;12.50;99.90
2010;DHT22;1008;47.404;8.502;2023-04-24T12:42:43;12.50;99.90
2010;DHT22;1008;47.404;8.502;2023-04-24T12:45:11;12.60;99.90
2010;DHT22;1008;47.404;8.502;2023-04-24T12:47:39;12.80;99.90
2010;DHT22;1008;47.404;8.502;2023-04-24T12:50:07;12.90;99.90
2010;DHT22;1008;47.404;8.502;2023-04-24T12:52:34;13.00;99.90
2010;DHT22;1008;47.404;8.502;2023-04-24T12:55:01;13.10;99.90
2010;DHT22;1008;47.404;8.502;2023-04-24T12:57:29;13.80;99.90
2010;DHT22;1008;47.404;8.502;2023-04-24T12:59:58;13.90;99.90
2010;DHT22;1008;47.404;8.502;2023-04-24T13:02:27;13.80;99.90
2010;DHT22;1008;47.404;8.502;2023-04-24T13:04:54;13.90;99.90
2010;DHT22;1008;47.404;8.502;2023-04-24T13:07:21;13.60;99.90
2010;DHT22;1008;47.404;8.502;2023-04-24T13:09:49;14.20;99.90
2010;DHT22;1008;47.404;8.502;2023-04-24T13:12:16;13.70;99.90
2010;DHT22;1008;47.404;8.502;2023-04-24T13:14:42;13.40;99.90
2010;DHT22;1008;47.404;8.502;2023-04-24T13:17:11;13.40;99.90
2010;DHT22;1008;47.404;8.502;2023-04-24T13:19:39;13.30;99.90
2010;DHT22;1008;47.404;8.502;2023-04-24T13:22:06;13.20;99.90
2010;DHT22;1008;47.404;8.502;2023-04-24T13:24:33;13.60;99.90
2010;DHT22;1008;47.404;8.502;2023-04-24T13:27:00;13.90;99.90
2010;DHT22;1008;47.404;8.502;2023-04-24T13:29:28;14.00;99.90
2010;DHT22;1008;47.404;8.502;2023-04-24T13:31:55;13.90;99.90
2010;DHT22;1008;47.404;8.502;2023-04-24T13:34:23;13.90;99.90
2010;DHT22;1008;47.404;8.502;2023-04-24T13:36:50;13.80;99.90
2010;DHT22;1008;47.404;8.502;2023-04-24T13:39:18;13.40;99.90
2010;DHT22;1008;47.404;8.502;2023-04-24T13:41:44;13.40;99.90
2010;DHT22;1008;47.404;8.502;2023-04-24T13:44:13;13.30;99.90
2010;DHT22;1008;47.404;8.502;2023-04-24T13:46:40;13.10;99.90
2010;DHT22;1008;47.404;8.502;2023-04-24T13:49:07;13.10;99.90
2010;DHT22;1008;47.404;8.502;2023-04-24T13:51:35;13.20;99.90
2010;DHT22;1008;47.404;8.502;2023-04-24T13:54:02;13.30;99.90
2010;DHT22;1008;47.404;8.502;2023-04-24T13:56:28;13.20;99.90
2010;DHT22;1008;47.404;8.502;2023-04-24T13:58:56;13.00;99.90
2010;DHT22;1008;47.404;8.502;2023-04-24T14:01:23;13.00;99.90
2010;DHT22;1008;47.404;8.502;2023-04-24T14:03:50;12.70;99.90
2010;DHT22;1008;47.404;8.502;2023-04-24T14:06:17;12.70;99.90
2010;DHT22;1008;47.404;8.502;2023-04-24T14:08:45;12.60;99.90
2010;DHT22;1008;47.404;8.502;2023-04-24T14:11:12;12.40;99.90
2010;DHT22;1008;47.404;8.502;2023-04-24T14:13:40;12.20;99.90
2010;DHT22;1008;47.404;8.502;2023-04-24T14:16:08;12.30;99.90
2010;DHT22;1008;47.404;8.502;2023-04-24T14:18:35;12.10;99.90
2010;DHT22;1008;47.404;8.502;2023-04-24T14:21:02;12.20;99.90
2010;DHT22;1008;47.404;8.502;2023-04-24T14:23:28;12.20;99.90
2010;DHT22;1008;47.404;8.502;2023-04-24T14:25:57;12.30;99.90
2010;DHT22;1008;47.404;8.502;2023-04-24T14:28:24;12.50;99.90
2010;DHT22;1008;47.404;8.502;2023-04-24T14:30:52;12.80;99.90
2010;DHT22;1008;47.404;8.502;2023-04-24T14:33:19;12.90;99.90
2010;DHT22;1008;47.404;8.502;2023-04-24T14:35:46;12.80;99.90
2010;DHT22;1008;47.404;8.502;2023-04-24T14:38:13;12.90;99.90
2010;DHT22;1008;47.404;8.502;2023-04-24T14:40:40;12.80;99.90
2010;DHT22;1008;47.404;8.502;2023-04-24T14:43:08;13.00;99.90
2010;DHT22;1008;47.404;8.502;2023-04-24T14:45:36;13.10;99.90
2010;DHT22;1008;47.404;8.502;2023-04-24T14:48:03;13.60;99.90
2010;DHT22;1008;47.404;8.502;2023-04-24T14:50:30;14.20;99.90
2010;DHT22;1008;47.404;8.502;2023-04-24T14:52:57;14.80;99.90
2010;DHT22;1008;47.404;8.502;2023-04-24T14:55:24;14.70;99.90
2010;DHT22;1008;47.404;8.502;2023-04-24T14:57:51;14.30;99.90
2010;DHT22;1008;47.404;8.502;2023-04-24T15:00:20;14.00;99.90
2010;DHT22;1008;47.404;8.502;2023-04-24T15:02:49;13.90;99.90
2010;DHT22;1008;47.404;8.502;2023-04-24T15:05:16;13.80;99.90
2010;DHT22;1008;47.404;8.502;2023-04-24T15:07:43;13.70;99.90
2010;DHT22;1008;47.404;8.502;2023-04-24T15:10:11;13.70;99.90
2010;DHT22;1008;47.404;8.502;2023-04-24T15:12:37;13.80;99.90
2010;DHT22;1008;47.404;8.502;2023-04-24T15:15:05;14.10;99.90
2010;DHT22;1008;47.404;8.502;2023-04-24T15:17:34;14.50;99.90
2010;DHT22;1008;47.404;8.502;2023-04-24T15:20:01;14.60;99.90
2010;DHT22;1008;47.404;8.502;2023-04-24T15:22:29;14.50;99.90
2010;DHT22;1008;47.404;8.502;2023-04-24T15:24:55;14.80;99.90
2010;DHT22;1008;47.404;8.502;2023-04-24T15:27:22;14.60;99.90
2010;DHT22;1008;47.404;8.502;2023-04-24T15:29:49;14.30;99.90
2010;DHT22;1008;47.404;8.502;2023-04-24T15:32:16;14.10;99.90
2010;DHT22;1008;47.404;8.502;2023-04-24T15:34:44;14.00;99.90
2010;DHT22;1008;47.404;8.502;2023-04-24T15:37:11;14.00;99.90
2010;DHT22;1008;47.404;8.502;2023-04-24T15:39:38;14.20;99.90
2010;DHT22;1008;47.404;8.502;2023-04-24T15:42:05;14.30;99.90
2010;DHT22;1008;47.404;8.502;2023-04-24T15:44:31;14.10;99.90
2010;DHT22;1008;47.404;8.502;2023-04-24T15:47:00;13.90;99.90
2010;DHT22;1008;47.404;8.502;2023-04-24T15:49:27;13.60;99.90
2010;DHT22;1008;47.404;8.502;2023-04-24T15:51:55;13.60;99.90
2010;DHT22;1008;47.404;8.502;2023-04-24T15:54:22;13.50;99.90
2010;DHT22;1008;47.404;8.502;2023-04-24T15:56:49;13.50;99.90
2010;DHT22;1008;47.404;8.502;2023-04-24T15:59:16;13.10;99.90
2010;DHT22;1008;47.404;8.502;2023-04-24T16:01:43;12.90;99.90
2010;DHT22;1008;47.404;8.502;2023-04-24T16:04:10;12.90;99.90
2010;DHT22;1008;47.404;8.502;2023-04-24T16:06:37;12.90;99.90